sensor_id;sensor_type;location;lat;lon;timestamp;P1;durP1;ratioP1;P2;durP2;ratioP2
14470;SDS011;7321;50.802;4.336;2023-01-04T00:01:09;3.73;;;1.73;;
14470;SDS011;7321;50.802;4.336;2023-01-04T00:03:38;3.07;;;1.97;;
14470;SDS011;7321;50.802;4.336;2023-01-04T00:06:04;5.30;;;1.83;;
14470;SDS011;7321;50.802;4.336;2023-01-04T00:08:32;2.97;;;1.70;;
14470;SDS011;7321;50.802;4.336;2023-01-04T00:11:02;4.27;;;1.83;;
14470;SDS011;7321;50.802;4.336;2023-01-04T00:13:29;2.03;;;1.70;;
14470;SDS011;7321;50.802;4.336;2023-01-04T00:15:55;2.80;;;1.80;;
14470;SDS011;7321;50.802;4.336;2023-01-04T00:18:22;3.43;;;2.30;;
14470;SDS011;7321;50.802;4.336;2023-01-04T00:20:48;3.70;;;1.70;;
14470;SDS011;7321;50.802;4.336;2023-01-04T00:23:13;3.13;;;1.57;;
14470;SDS011;7321;50.802;4.336;2023-01-04T00:25:39;3.30;;;1.63;;
14470;SDS011;7321;50.802;4.336;2023-01-04T00:28:08;2.27;;;1.50;;
14470;SDS011;7321;50.802;4.336;2023-01-04T00:30:34;2.20;;;1.30;;
14470;SDS011;7321;50.802;4.336;2023-01-04T00:33:05;2.73;;;1.40;;
14470;SDS011;7321;50.802;4.336;2023-01-04T00:35:32;3.43;;;1.63;;
14470;SDS011;7321;50.802;4.336;2023-01-04T00:38:01;2.43;;;1.50;;
14470;SDS011;7321;50.802;4.336;2023-01-04T00:40:26;2.93;;;1.60;;
14470;SDS011;7321;50.802;4.336;2023-01-04T00:42:52;1.40;;;1.30;;
14470;SDS011;7321;50.802;4.336;2023-01-04T00:45:19;2.03;;;1.70;;
14470;SDS011;7321;50.802;4.336;2023-01-04T00:47:45;2.43;;;1.70;;
14470;SDS011;7321;50.802;4.336;2023-01-04T00:50:16;3.07;;;1.50;;
14470;SDS011;7321;50.802;4.336;2023-01-04T00:52:42;4.33;;;1.40;;
14470;SDS011;7321;50.802;4.336;2023-01-04T00:55:08;3.30;;;1.57;;
14470;SDS011;7321;50.802;4.336;2023-01-04T00:57:34;2.20;;;1.30;;
14470;SDS011;7321;50.802;4.336;2023-01-04T01:00:00;2.80;;;1.77;;
14470;SDS011;7321;50.802;4.336;2023-01-04T01:02:26;2.80;;;1.70;;
14470;SDS011;7321;50.802;4.336;2023-01-04T01:04:53;2.07;;;1.50;;
14470;SDS011;7321;50.802;4.336;2023-01-04T01:07:19;1.83;;;1.50;;
14470;SDS011;7321;50.802;4.336;2023-01-04T01:09:44;1.90;;;1.70;;
14470;SDS011;7321;50.802;4.336;2023-01-04T01:12:10;1.50;;;1.40;;
14470;SDS011;7321;50.802;4.336;2023-01-04T01:14:36;2.60;;;1.57;;
14470;SDS011;7321;50.802;4.336;2023-01-04T01:17:02;3.83;;;1.80;;
14470;SDS011;7321;50.802;4.336;2023-01-04T01:19:28;2.37;;;1.80;;
14470;SDS011;7321;50.802;4.336;2023-01-04T01:21:57;2.80;;;1.67;;
14470;SDS011;7321;50.802;4.336;2023-01-04T01:24:23;3.30;;;1.90;;
14470;SDS011;7321;50.802;4.336;2023-01-04T01:26:48;2.50;;;1.70;;
14470;SDS011;7321;50.802;4.336;2023-01-04T01:29:14;2.00;;;1.57;;
14470;SDS011;7321;50.802;4.336;2023-01-04T01:31:40;2.03;;;1.30;;
14470;SDS011;7321;50.802;4.336;2023-01-04T01:34:06;2.70;;;1.80;;
14470;SDS011;7321;50.802;4.336;2023-01-04T01:36:32;3.03;;;1.60;;
14470;SDS011;7321;50.802;4.336;2023-01-04T01:38:58;3.07;;;2.10;;
14470;SDS011;7321;50.802;4.336;2023-01-04T01:41:29;2.50;;;1.80;;
14470;SDS011;7321;50.802;4.336;2023-01-04T01:46:57;3.37;;;2.03;;
14470;SDS011;7321;50.802;4.336;2023-01-04T01:49:23;5.10;;;2.63;;
14470;SDS011;7321;50.802;4.336;2023-01-04T01:51:55;2.50;;;2.30;;
14470;SDS011;7321;50.802;4.336;2023-01-04T01:54:28;3.07;;;2.30;;
14470;SDS011;7321;50.802;4.336;2023-01-04T01:57:01;3.00;;;2.03;;
14470;SDS011;7321;50.802;4.336;2023-01-04T01:59:29;4.37;;;2.10;;
14470;SDS011;7321;50.802;4.336;2023-01-04T02:01:58;3.87;;;2.13;;
14470;SDS011;7321;50.802;4.336;2023-01-04T02:04:24;3.47;;;2.13;;
14470;SDS011;7321;50.802;4.336;2023-01-04T02:06:50;3.43;;;2.30;;
14470;SDS011;7321;50.802;4.336;2023-01-04T02:09:19;3.70;;;2.63;;
14470;SDS011;7321;50.802;4.336;2023-01-04T02:11:46;5.47;;;2.50;;
14470;SDS011;7321;50.802;4.336;2023-01-04T02:14:12;3.37;;;2.50;;
14470;SDS011;7321;50.802;4.336;2023-01-04T02:17:12;3.67;;;2.50;;
14470;SDS011;7321;50.802;4.336;2023-01-04T02:33:15;5.37;;;2.50;;
14470;SDS011;7321;50.802;4.336;2023-01-04T02:39:12;6.50;;;3.20;;
14470;SDS011;7321;50.802;4.336;2023-01-04T02:47:19;5.83;;;2.90;;
14470;SDS011;7321;50.802;4.336;2023-01-04T02:50:15;3.83;;;2.97;;
14470;SDS011;7321;50.802;4.336;2023-01-04T02:53:05;4.00;;;2.67;;
14470;SDS011;7321;50.802;4.336;2023-01-04T03:01:03;3.83;;;2.83;;
14470;SDS011;7321;50.802;4.336;2023-01-04T03:07:09;3.50;;;2.47;;
14470;SDS011;7321;50.802;4.336;2023-01-04T03:09:36;4.97;;;2.90;;
14470;SDS011;7321;50.802;4.336;2023-01-04T03:12:10;6.10;;;2.90;;
14470;SDS011;7321;50.802;4.336;2023-01-04T03:15:09;5.93;;;2.80;;
14470;SDS011;7321;50.802;4.336;2023-01-04T03:17:51;3.90;;;2.20;;
14470;SDS011;7321;50.802;4.336;2023-01-04T03:20:22;6.07;;;2.57;;
14470;SDS011;7321;50.802;4.336;2023-01-04T03:22:51;2.47;;;2.10;;
14470;SDS011;7321;50.802;4.336;2023-01-04T03:25:47;4.93;;;2.30;;
14470;SDS011;7321;50.802;4.336;2023-01-04T03:28:36;6.50;;;2.53;;
14470;SDS011;7321;50.802;4.336;2023-01-04T03:31:29;3.37;;;2.33;;
14470;SDS011;7321;50.802;4.336;2023-01-04T03:34:17;3.93;;;2.50;;
14470;SDS011;7321;50.802;4.336;2023-01-04T03:37:04;4.43;;;2.27;;
14470;SDS011;7321;50.802;4.336;2023-01-04T03:45:26;4.93;;;2.10;;
14470;SDS011;7321;50.802;4.336;2023-01-04T03:48:18;3.30;;;2.10;;
14470;SDS011;7321;50.802;4.336;2023-01-04T03:51:12;2.30;;;2.00;;
14470;SDS011;7321;50.802;4.336;2023-01-04T03:53:52;2.67;;;1.60;;
14470;SDS011;7321;50.802;4.336;2023-01-04T03:56:21;2.73;;;2.20;;
14470;SDS011;7321;50.802;4.336;2023-01-04T03:58:49;2.47;;;2.20;;
14470;SDS011;7321;50.802;4.336;2023-01-04T04:01:18;3.57;;;1.73;;
14470;SDS011;7321;50.802;4.336;2023-01-04T04:03:45;2.57;;;2.10;;
14470;SDS011;7321;50.802;4.336;2023-01-04T04:06:30;2.67;;;2.10;;
14470;SDS011;7321;50.802;4.336;2023-01-04T04:09:14;2.80;;;1.70;;
14470;SDS011;7321;50.802;4.336;2023-01-04T04:11:40;6.87;;;2.20;;
14470;SDS011;7321;50.802;4.336;2023-01-04T04:14:06;4.93;;;1.83;;
14470;SDS011;7321;50.802;4.336;2023-01-04T04:16:31;2.30;;;1.40;;
14470;SDS011;7321;50.802;4.336;2023-01-04T04:18:57;2.83;;;1.40;;
14470;SDS011;7321;50.802;4.336;2023-01-04T04:21:23;3.67;;;1.70;;
14470;SDS011;7321;50.802;4.336;2023-01-04T04:23:49;3.33;;;1.70;;
14470;SDS011;7321;50.802;4.336;2023-01-04T04:26:15;2.70;;;1.87;;
14470;SDS011;7321;50.802;4.336;2023-01-04T04:28:41;2.70;;;1.50;;
14470;SDS011;7321;50.802;4.336;2023-01-04T04:31:07;2.90;;;1.40;;
14470;SDS011;7321;50.802;4.336;2023-01-04T04:33:33;2.70;;;1.87;;
14470;SDS011;7321;50.802;4.336;2023-01-04T04:35:59;2.30;;;1.33;;
14470;SDS011;7321;50.802;4.336;2023-01-04T04:38:25;2.70;;;1.27;;
14470;SDS011;7321;50.802;4.336;2023-01-04T04:40:51;1.70;;;1.30;;
14470;SDS011;7321;50.802;4.336;2023-01-04T04:43:35;2.17;;;1.20;;
14470;SDS011;7321;50.802;4.336;2023-01-04T04:46:01;1.53;;;1.30;;
14470;SDS011;7321;50.802;4.336;2023-01-04T04:48:27;1.30;;;1.10;;
14470;SDS011;7321;50.802;4.336;2023-01-04T04:50:53;2.20;;;1.20;;
14470;SDS011;7321;50.802;4.336;2023-01-04T04:53:19;1.73;;;1.03;;
14470;SDS011;7321;50.802;4.336;2023-01-04T04:55:44;1.60;;;1.03;;
14470;SDS011;7321;50.802;4.336;2023-01-04T04:58:10;1.20;;;1.10;;
14470;SDS011;7321;50.802;4.336;2023-01-04T05:00:36;1.90;;;1.27;;
14470;SDS011;7321;50.802;4.336;2023-01-04T05:03:04;2.00;;;1.43;;
14470;SDS011;7321;50.802;4.336;2023-01-04T05:05:30;1.50;;;1.10;;
14470;SDS011;7321;50.802;4.336;2023-01-04T05:07:56;2.70;;;1.40;;
14470;SDS011;7321;50.802;4.336;2023-01-04T05:10:22;3.20;;;1.20;;
14470;SDS011;7321;50.802;4.336;2023-01-04T05:12:47;2.47;;;1.27;;
14470;SDS011;7321;50.802;4.336;2023-01-04T05:15:47;1.47;;;1.10;;
14470;SDS011;7321;50.802;4.336;2023-01-04T05:18:13;3.17;;;1.10;;
14470;SDS011;7321;50.802;4.336;2023-01-04T05:20:41;2.07;;;1.50;;
14470;SDS011;7321;50.802;4.336;2023-01-04T05:23:07;1.30;;;1.20;;
14470;SDS011;7321;50.802;4.336;2023-01-04T05:25:35;4.33;;;1.37;;
14470;SDS011;7321;50.802;4.336;2023-01-04T05:28:01;1.50;;;1.40;;
14470;SDS011;7321;50.802;4.336;2023-01-04T05:30:27;1.60;;;1.27;;
14470;SDS011;7321;50.802;4.336;2023-01-04T05:33:11;1.93;;;1.10;;
14470;SDS011;7321;50.802;4.336;2023-01-04T05:35:37;1.30;;;1.00;;
14470;SDS011;7321;50.802;4.336;2023-01-04T05:38:03;1.97;;;0.97;;
14470;SDS011;7321;50.802;4.336;2023-01-04T05:40:29;1.10;;;1.00;;
14470;SDS011;7321;50.802;4.336;2023-01-04T05:42:55;2.40;;;1.07;;
14470;SDS011;7321;50.802;4.336;2023-01-04T05:45:21;2.67;;;1.20;;
14470;SDS011;7321;50.802;4.336;2023-01-04T05:47:47;2.63;;;1.20;;
14470;SDS011;7321;50.802;4.336;2023-01-04T05:50:15;1.60;;;1.27;;
14470;SDS011;7321;50.802;4.336;2023-01-04T05:52:42;3.47;;;1.33;;
14470;SDS011;7321;50.802;4.336;2023-01-04T05:55:08;3.87;;;1.60;;
14470;SDS011;7321;50.802;4.336;2023-01-04T05:57:34;1.83;;;0.90;;
14470;SDS011;7321;50.802;4.336;2023-01-04T06:00:00;2.43;;;1.33;;
14470;SDS011;7321;50.802;4.336;2023-01-04T06:02:29;2.77;;;0.83;;
14470;SDS011;7321;50.802;4.336;2023-01-04T06:04:55;2.30;;;0.80;;
14470;SDS011;7321;50.802;4.336;2023-01-04T06:07:22;1.63;;;0.80;;
14470;SDS011;7321;50.802;4.336;2023-01-04T06:09:48;1.27;;;0.90;;
14470;SDS011;7321;50.802;4.336;2023-01-04T06:12:14;1.57;;;1.03;;
14470;SDS011;7321;50.802;4.336;2023-01-04T06:14:40;2.00;;;1.00;;
14470;SDS011;7321;50.802;4.336;2023-01-04T06:17:06;1.30;;;0.97;;
14470;SDS011;7321;50.802;4.336;2023-01-04T06:19:32;2.07;;;1.10;;
14470;SDS011;7321;50.802;4.336;2023-01-04T06:21:59;1.13;;;0.90;;
14470;SDS011;7321;50.802;4.336;2023-01-04T06:24:25;1.40;;;1.27;;
14470;SDS011;7321;50.802;4.336;2023-01-04T06:26:51;0.87;;;0.87;;
14470;SDS011;7321;50.802;4.336;2023-01-04T06:29:17;1.80;;;1.20;;
14470;SDS011;7321;50.802;4.336;2023-01-04T06:31:42;1.43;;;0.93;;
14470;SDS011;7321;50.802;4.336;2023-01-04T06:34:13;2.03;;;1.23;;
14470;SDS011;7321;50.802;4.336;2023-01-04T06:36:39;1.63;;;1.27;;
14470;SDS011;7321;50.802;4.336;2023-01-04T06:39:06;2.73;;;1.30;;
14470;SDS011;7321;50.802;4.336;2023-01-04T06:41:32;2.70;;;1.37;;
14470;SDS011;7321;50.802;4.336;2023-01-04T06:43:58;2.20;;;1.10;;
14470;SDS011;7321;50.802;4.336;2023-01-04T06:46:24;3.93;;;1.77;;
14470;SDS011;7321;50.802;4.336;2023-01-04T06:48:50;2.97;;;1.40;;
14470;SDS011;7321;50.802;4.336;2023-01-04T06:51:18;3.40;;;1.37;;
14470;SDS011;7321;50.802;4.336;2023-01-04T06:53:44;4.23;;;1.70;;
14470;SDS011;7321;50.802;4.336;2023-01-04T06:56:10;1.60;;;1.43;;
14470;SDS011;7321;50.802;4.336;2023-01-04T06:58:36;1.70;;;1.00;;
14470;SDS011;7321;50.802;4.336;2023-01-04T07:01:02;2.60;;;1.27;;
14470;SDS011;7321;50.802;4.336;2023-01-04T07:03:29;2.63;;;1.20;;
14470;SDS011;7321;50.802;4.336;2023-01-04T07:05:54;2.57;;;1.10;;
14470;SDS011;7321;50.802;4.336;2023-01-04T07:08:20;2.20;;;1.10;;
14470;SDS011;7321;50.802;4.336;2023-01-04T07:10:46;2.30;;;1.00;;
14470;SDS011;7321;50.802;4.336;2023-01-04T07:13:12;1.23;;;0.80;;
14470;SDS011;7321;50.802;4.336;2023-01-04T07:15:38;2.53;;;1.00;;
14470;SDS011;7321;50.802;4.336;2023-01-04T07:18:04;2.97;;;1.00;;
14470;SDS011;7321;50.802;4.336;2023-01-04T07:20:29;4.23;;;1.07;;
14470;SDS011;7321;50.802;4.336;2023-01-04T07:22:55;3.60;;;1.10;;
14470;SDS011;7321;50.802;4.336;2023-01-04T07:25:21;2.83;;;0.80;;
14470;SDS011;7321;50.802;4.336;2023-01-04T07:27:50;2.57;;;1.20;;
14470;SDS011;7321;50.802;4.336;2023-01-04T07:30:17;1.40;;;0.80;;
14470;SDS011;7321;50.802;4.336;2023-01-04T07:32:43;3.80;;;1.40;;
14470;SDS011;7321;50.802;4.336;2023-01-04T07:35:09;3.00;;;1.00;;
14470;SDS011;7321;50.802;4.336;2023-01-04T07:37:35;1.10;;;0.83;;
14470;SDS011;7321;50.802;4.336;2023-01-04T07:40:00;1.73;;;0.80;;
14470;SDS011;7321;50.802;4.336;2023-01-04T07:42:28;1.53;;;0.93;;
14470;SDS011;7321;50.802;4.336;2023-01-04T07:44:54;2.40;;;1.07;;
14470;SDS011;7321;50.802;4.336;2023-01-04T07:47:19;2.33;;;1.20;;
14470;SDS011;7321;50.802;4.336;2023-01-04T07:49:46;3.63;;;1.43;;
14470;SDS011;7321;50.802;4.336;2023-01-04T07:52:14;1.03;;;0.93;;
14470;SDS011;7321;50.802;4.336;2023-01-04T07:54:40;4.93;;;1.10;;
14470;SDS011;7321;50.802;4.336;2023-01-04T07:57:06;3.43;;;1.13;;
14470;SDS011;7321;50.802;4.336;2023-01-04T07:59:32;3.33;;;1.30;;
14470;SDS011;7321;50.802;4.336;2023-01-04T08:01:58;4.60;;;1.50;;
14470;SDS011;7321;50.802;4.336;2023-01-04T08:04:24;3.23;;;1.40;;
14470;SDS011;7321;50.802;4.336;2023-01-04T08:06:50;3.90;;;1.60;;
14470;SDS011;7321;50.802;4.336;2023-01-04T08:09:16;2.33;;;1.43;;
14470;SDS011;7321;50.802;4.336;2023-01-04T08:11:44;2.57;;;1.30;;
14470;SDS011;7321;50.802;4.336;2023-01-04T08:14:11;2.40;;;1.60;;
14470;SDS011;7321;50.802;4.336;2023-01-04T08:16:38;3.10;;;1.67;;
14470;SDS011;7321;50.802;4.336;2023-01-04T08:19:12;3.30;;;1.53;;
14470;SDS011;7321;50.802;4.336;2023-01-04T08:21:40;3.87;;;1.30;;
14470;SDS011;7321;50.802;4.336;2023-01-04T08:24:06;2.37;;;1.07;;
14470;SDS011;7321;50.802;4.336;2023-01-04T08:26:33;2.80;;;1.40;;
14470;SDS011;7321;50.802;4.336;2023-01-04T08:28:59;1.60;;;1.20;;
14470;SDS011;7321;50.802;4.336;2023-01-04T08:31:26;3.87;;;1.77;;
14470;SDS011;7321;50.802;4.336;2023-01-04T08:33:54;2.23;;;1.13;;
14470;SDS011;7321;50.802;4.336;2023-01-04T08:36:25;1.50;;;1.20;;
14470;SDS011;7321;50.802;4.336;2023-01-04T08:38:53;3.67;;;1.20;;
14470;SDS011;7321;50.802;4.336;2023-01-04T08:41:20;3.93;;;1.40;;
14470;SDS011;7321;50.802;4.336;2023-01-04T08:43:46;3.63;;;1.40;;
14470;SDS011;7321;50.802;4.336;2023-01-04T08:46:12;2.53;;;1.50;;
14470;SDS011;7321;50.802;4.336;2023-01-04T08:48:39;3.90;;;1.40;;
14470;SDS011;7321;50.802;4.336;2023-01-04T08:51:07;4.00;;;1.50;;
14470;SDS011;7321;50.802;4.336;2023-01-04T08:53:37;3.00;;;1.50;;
14470;SDS011;7321;50.802;4.336;2023-01-04T08:56:03;2.73;;;1.33;;
14470;SDS011;7321;50.802;4.336;2023-01-04T08:58:31;5.07;;;1.77;;
14470;SDS011;7321;50.802;4.336;2023-01-04T09:01:00;1.77;;;1.17;;
14470;SDS011;7321;50.802;4.336;2023-01-04T09:03:33;2.07;;;1.13;;
14470;SDS011;7321;50.802;4.336;2023-01-04T09:08:30;6.73;;;1.40;;
14470;SDS011;7321;50.802;4.336;2023-01-04T09:11:02;2.40;;;1.10;;
14470;SDS011;7321;50.802;4.336;2023-01-04T09:13:46;5.13;;;1.37;;
14470;SDS011;7321;50.802;4.336;2023-01-04T09:16:17;3.50;;;1.10;;
14470;SDS011;7321;50.802;4.336;2023-01-04T09:18:44;2.63;;;1.10;;
14470;SDS011;7321;50.802;4.336;2023-01-04T09:21:15;2.17;;;1.00;;
14470;SDS011;7321;50.802;4.336;2023-01-04T09:23:43;3.40;;;1.10;;
14470;SDS011;7321;50.802;4.336;2023-01-04T09:26:11;4.20;;;1.30;;
14470;SDS011;7321;50.802;4.336;2023-01-04T09:28:48;3.17;;;1.00;;
14470;SDS011;7321;50.802;4.336;2023-01-04T09:31:18;4.73;;;1.17;;
14470;SDS011;7321;50.802;4.336;2023-01-04T09:33:47;2.67;;;1.00;;
14470;SDS011;7321;50.802;4.336;2023-01-04T09:36:13;2.97;;;1.17;;
14470;SDS011;7321;50.802;4.336;2023-01-04T09:38:40;2.47;;;1.20;;
14470;SDS011;7321;50.802;4.336;2023-01-04T09:43:49;4.53;;;1.47;;
14470;SDS011;7321;50.802;4.336;2023-01-04T09:52:01;2.97;;;1.20;;
14470;SDS011;7321;50.802;4.336;2023-01-04T09:57:21;4.87;;;1.00;;
14470;SDS011;7321;50.802;4.336;2023-01-04T09:59:49;1.00;;;0.87;;
14470;SDS011;7321;50.802;4.336;2023-01-04T10:02:23;2.53;;;1.20;;
14470;SDS011;7321;50.802;4.336;2023-01-04T10:04:54;2.00;;;1.00;;
14470;SDS011;7321;50.802;4.336;2023-01-04T10:07:25;3.23;;;1.00;;
14470;SDS011;7321;50.802;4.336;2023-01-04T10:09:53;3.87;;;1.00;;
14470;SDS011;7321;50.802;4.336;2023-01-04T10:12:31;2.37;;;0.93;;
14470;SDS011;7321;50.802;4.336;2023-01-04T10:25:56;3.63;;;1.27;;
14470;SDS011;7321;50.802;4.336;2023-01-04T10:31:34;2.57;;;1.10;;
14470;SDS011;7321;50.802;4.336;2023-01-04T10:36:41;2.30;;;0.90;;
14470;SDS011;7321;50.802;4.336;2023-01-04T10:39:11;1.87;;;0.83;;
14470;SDS011;7321;50.802;4.336;2023-01-04T10:41:45;1.80;;;1.00;;
14470;SDS011;7321;50.802;4.336;2023-01-04T10:49:40;1.73;;;0.80;;
14470;SDS011;7321;50.802;4.336;2023-01-04T10:52:17;2.70;;;0.90;;
14470;SDS011;7321;50.802;4.336;2023-01-04T10:54:59;3.60;;;1.00;;
14470;SDS011;7321;50.802;4.336;2023-01-04T10:57:49;1.60;;;0.83;;
14470;SDS011;7321;50.802;4.336;2023-01-04T11:03:05;2.13;;;0.93;;
14470;SDS011;7321;50.802;4.336;2023-01-04T11:05:40;1.57;;;1.00;;
14470;SDS011;7321;50.802;4.336;2023-01-04T11:08:16;2.17;;;1.00;;
14470;SDS011;7321;50.802;4.336;2023-01-04T11:10:44;0.87;;;0.80;;
14470;SDS011;7321;50.802;4.336;2023-01-04T11:13:14;1.87;;;0.93;;
14470;SDS011;7321;50.802;4.336;2023-01-04T11:15:41;1.37;;;0.97;;
14470;SDS011;7321;50.802;4.336;2023-01-04T11:18:09;1.83;;;0.90;;
14470;SDS011;7321;50.802;4.336;2023-01-04T11:20:38;2.43;;;1.53;;
14470;SDS011;7321;50.802;4.336;2023-01-04T11:23:17;3.67;;;1.30;;
14470;SDS011;7321;50.802;4.336;2023-01-04T11:26:03;7.70;;;6.20;;
14470;SDS011;7321;50.802;4.336;2023-01-04T11:28:50;2.43;;;0.87;;
14470;SDS011;7321;50.802;4.336;2023-01-04T11:34:01;2.33;;;1.33;;
14470;SDS011;7321;50.802;4.336;2023-01-04T11:39:04;2.50;;;1.17;;
14470;SDS011;7321;50.802;4.336;2023-01-04T11:41:52;4.77;;;2.00;;
14470;SDS011;7321;50.802;4.336;2023-01-04T11:44:41;4.00;;;2.80;;
14470;SDS011;7321;50.802;4.336;2023-01-04T11:47:17;1.63;;;1.30;;
14470;SDS011;7321;50.802;4.336;2023-01-04T11:49:54;4.57;;;1.50;;
14470;SDS011;7321;50.802;4.336;2023-01-04T11:54:52;3.53;;;1.00;;
14470;SDS011;7321;50.802;4.336;2023-01-04T11:57:18;2.23;;;1.30;;
14470;SDS011;7321;50.802;4.336;2023-01-04T11:59:44;3.73;;;1.53;;
14470;SDS011;7321;50.802;4.336;2023-01-04T12:02:20;1.93;;;1.50;;
14470;SDS011;7321;50.802;4.336;2023-01-04T12:04:48;3.50;;;1.57;;
14470;SDS011;7321;50.802;4.336;2023-01-04T12:09:58;1.87;;;1.50;;
14470;SDS011;7321;50.802;4.336;2023-01-04T12:12:26;2.73;;;1.40;;
14470;SDS011;7321;50.802;4.336;2023-01-04T12:15:04;2.97;;;2.03;;
14470;SDS011;7321;50.802;4.336;2023-01-04T12:20:12;4.10;;;1.77;;
14470;SDS011;7321;50.802;4.336;2023-01-04T12:22:41;4.40;;;1.67;;
14470;SDS011;7321;50.802;4.336;2023-01-04T12:27:48;3.87;;;1.80;;
14470;SDS011;7321;50.802;4.336;2023-01-04T12:30:35;3.07;;;1.60;;
14470;SDS011;7321;50.802;4.336;2023-01-04T12:50:09;3.17;;;1.90;;
14470;SDS011;7321;50.802;4.336;2023-01-04T12:57:55;2.47;;;1.53;;
14470;SDS011;7321;50.802;4.336;2023-01-04T13:00:23;2.00;;;1.70;;
14470;SDS011;7321;50.802;4.336;2023-01-04T13:05:40;1.90;;;1.50;;
14470;SDS011;7321;50.802;4.336;2023-01-04T13:08:12;1.87;;;1.33;;
14470;SDS011;7321;50.802;4.336;2023-01-04T13:13:32;4.20;;;1.60;;
14470;SDS011;7321;50.802;4.336;2023-01-04T13:19:20;1.73;;;1.47;;
14470;SDS011;7321;50.802;4.336;2023-01-04T13:21:48;2.30;;;1.70;;
14470;SDS011;7321;50.802;4.336;2023-01-04T13:26:45;3.27;;;1.33;;
14470;SDS011;7321;50.802;4.336;2023-01-04T13:32:11;3.70;;;1.40;;
14470;SDS011;7321;50.802;4.336;2023-01-04T13:34:54;4.37;;;3.97;;
14470;SDS011;7321;50.802;4.336;2023-01-04T13:37:32;1.13;;;0.97;;
14470;SDS011;7321;50.802;4.336;2023-01-04T13:40:14;1.13;;;1.00;;
14470;SDS011;7321;50.802;4.336;2023-01-04T13:48:26;2.27;;;1.00;;
14470;SDS011;7321;50.802;4.336;2023-01-04T13:51:00;1.63;;;0.83;;
14470;SDS011;7321;50.802;4.336;2023-01-04T13:53:38;1.43;;;1.00;;
14470;SDS011;7321;50.802;4.336;2023-01-04T13:56:04;5.87;;;4.87;;
14470;SDS011;7321;50.802;4.336;2023-01-04T13:58:33;2.10;;;1.17;;
14470;SDS011;7321;50.802;4.336;2023-01-04T14:01:06;1.60;;;0.90;;
14470;SDS011;7321;50.802;4.336;2023-01-04T14:08:49;2.20;;;1.93;;
14470;SDS011;7321;50.802;4.336;2023-01-04T14:22:33;2.37;;;1.47;;
14470;SDS011;7321;50.802;4.336;2023-01-04T14:31:29;6.93;;;5.10;;
14470;SDS011;7321;50.802;4.336;2023-01-04T14:33:44;9.20;;;6.90;;
14470;SDS011;7321;50.802;4.336;2023-01-04T14:36:12;2.53;;;1.73;;
14470;SDS011;7321;50.802;4.336;2023-01-04T14:38:54;2.27;;;2.03;;
14470;SDS011;7321;50.802;4.336;2023-01-04T14:41:41;2.30;;;2.10;;
14470;SDS011;7321;50.802;4.336;2023-01-04T14:46:42;3.40;;;2.97;;
14470;SDS011;7321;50.802;4.336;2023-01-04T14:49:11;1.70;;;1.60;;
14470;SDS011;7321;50.802;4.336;2023-01-04T14:54:09;2.70;;;2.50;;
14470;SDS011;7321;50.802;4.336;2023-01-04T14:56:39;7.03;;;6.40;;
14470;SDS011;7321;50.802;4.336;2023-01-04T14:59:06;5.87;;;4.30;;
14470;SDS011;7321;50.802;4.336;2023-01-04T15:01:32;3.33;;;3.03;;
14470;SDS011;7321;50.802;4.336;2023-01-04T15:03:58;4.27;;;2.60;;
14470;SDS011;7321;50.802;4.336;2023-01-04T15:06:27;4.40;;;2.33;;
14470;SDS011;7321;50.802;4.336;2023-01-04T15:08:53;4.07;;;1.90;;
14470;SDS011;7321;50.802;4.336;2023-01-04T15:11:19;5.00;;;1.70;;
14470;SDS011;7321;50.802;4.336;2023-01-04T15:13:45;3.40;;;1.70;;
14470;SDS011;7321;50.802;4.336;2023-01-04T15:16:11;4.83;;;2.53;;
14470;SDS011;7321;50.802;4.336;2023-01-04T15:18:40;8.70;;;3.40;;
14470;SDS011;7321;50.802;4.336;2023-01-04T15:21:06;5.30;;;2.33;;
14470;SDS011;7321;50.802;4.336;2023-01-04T15:23:33;6.93;;;2.50;;
14470;SDS011;7321;50.802;4.336;2023-01-04T15:26:03;7.97;;;2.60;;
14470;SDS011;7321;50.802;4.336;2023-01-04T15:28:32;10.37;;;2.67;;
14470;SDS011;7321;50.802;4.336;2023-01-04T15:30:58;8.73;;;3.33;;
14470;SDS011;7321;50.802;4.336;2023-01-04T15:33:26;13.60;;;3.40;;
14470;SDS011;7321;50.802;4.336;2023-01-04T15:35:56;15.00;;;3.17;;
14470;SDS011;7321;50.802;4.336;2023-01-04T15:38:25;17.83;;;3.53;;
14470;SDS011;7321;50.802;4.336;2023-01-04T15:41:08;10.57;;;3.20;;
14470;SDS011;7321;50.802;4.336;2023-01-04T15:44:09;13.87;;;3.83;;
14470;SDS011;7321;50.802;4.336;2023-01-04T15:46:36;13.70;;;3.73;;
14470;SDS011;7321;50.802;4.336;2023-01-04T15:49:02;14.23;;;3.67;;
14470;SDS011;7321;50.802;4.336;2023-01-04T15:51:27;15.90;;;4.07;;
14470;SDS011;7321;50.802;4.336;2023-01-04T15:53:53;21.53;;;6.07;;
14470;SDS011;7321;50.802;4.336;2023-01-04T15:56:20;17.07;;;5.43;;
14470;SDS011;7321;50.802;4.336;2023-01-04T15:58:49;17.20;;;4.47;;
14470;SDS011;7321;50.802;4.336;2023-01-04T16:01:17;20.80;;;5.33;;
14470;SDS011;7321;50.802;4.336;2023-01-04T16:03:42;19.17;;;4.30;;
14470;SDS011;7321;50.802;4.336;2023-01-04T16:06:12;18.47;;;4.53;;
14470;SDS011;7321;50.802;4.336;2023-01-04T16:08:40;20.10;;;4.47;;
14470;SDS011;7321;50.802;4.336;2023-01-04T16:11:10;17.43;;;4.70;;
14470;SDS011;7321;50.802;4.336;2023-01-04T16:13:41;17.47;;;4.30;;
14470;SDS011;7321;50.802;4.336;2023-01-04T16:16:08;18.50;;;5.37;;
14470;SDS011;7321;50.802;4.336;2023-01-04T16:18:34;18.37;;;5.53;;
14470;SDS011;7321;50.802;4.336;2023-01-04T16:21:05;21.57;;;4.93;;
14470;SDS011;7321;50.802;4.336;2023-01-04T16:23:32;21.97;;;4.73;;
14470;SDS011;7321;50.802;4.336;2023-01-04T16:26:03;19.73;;;5.67;;
14470;SDS011;7321;50.802;4.336;2023-01-04T16:28:30;23.07;;;5.27;;
14470;SDS011;7321;50.802;4.336;2023-01-04T16:30:56;20.93;;;6.07;;
14470;SDS011;7321;50.802;4.336;2023-01-04T16:33:22;21.73;;;5.70;;
14470;SDS011;7321;50.802;4.336;2023-01-04T16:35:48;22.17;;;5.93;;
14470;SDS011;7321;50.802;4.336;2023-01-04T16:38:14;23.07;;;5.83;;
14470;SDS011;7321;50.802;4.336;2023-01-04T16:40:39;22.23;;;6.00;;
14470;SDS011;7321;50.802;4.336;2023-01-04T16:43:05;19.67;;;5.67;;
14470;SDS011;7321;50.802;4.336;2023-01-04T16:45:31;22.60;;;6.23;;
14470;SDS011;7321;50.802;4.336;2023-01-04T16:47:57;24.27;;;6.00;;
14470;SDS011;7321;50.802;4.336;2023-01-04T16:50:25;22.30;;;6.63;;
14470;SDS011;7321;50.802;4.336;2023-01-04T16:52:50;20.57;;;5.03;;
14470;SDS011;7321;50.802;4.336;2023-01-04T16:55:16;23.07;;;6.10;;
14470;SDS011;7321;50.802;4.336;2023-01-04T16:57:42;23.07;;;6.47;;
14470;SDS011;7321;50.802;4.336;2023-01-04T17:00:08;21.43;;;5.70;;
14470;SDS011;7321;50.802;4.336;2023-01-04T17:02:34;23.53;;;6.67;;
14470;SDS011;7321;50.802;4.336;2023-01-04T17:05:00;25.23;;;5.80;;
14470;SDS011;7321;50.802;4.336;2023-01-04T17:07:27;24.00;;;5.63;;
14470;SDS011;7321;50.802;4.336;2023-01-04T17:09:56;23.07;;;6.07;;
14470;SDS011;7321;50.802;4.336;2023-01-04T17:12:23;24.67;;;7.23;;
14470;SDS011;7321;50.802;4.336;2023-01-04T17:14:49;24.83;;;6.53;;
14470;SDS011;7321;50.802;4.336;2023-01-04T17:17:15;23.07;;;6.10;;
14470;SDS011;7321;50.802;4.336;2023-01-04T17:19:41;23.77;;;7.20;;
14470;SDS011;7321;50.802;4.336;2023-01-04T17:22:07;25.13;;;6.87;;
14470;SDS011;7321;50.802;4.336;2023-01-04T17:24:32;22.10;;;6.77;;
14470;SDS011;7321;50.802;4.336;2023-01-04T17:26:58;27.83;;;6.77;;
14470;SDS011;7321;50.802;4.336;2023-01-04T17:29:24;23.83;;;6.87;;
14470;SDS011;7321;50.802;4.336;2023-01-04T17:31:50;25.37;;;6.57;;
14470;SDS011;7321;50.802;4.336;2023-01-04T17:34:16;22.30;;;5.93;;
14470;SDS011;7321;50.802;4.336;2023-01-04T17:36:42;22.20;;;5.93;;
14470;SDS011;7321;50.802;4.336;2023-01-04T17:39:08;27.10;;;7.20;;
14470;SDS011;7321;50.802;4.336;2023-01-04T17:41:35;28.97;;;7.13;;
14470;SDS011;7321;50.802;4.336;2023-01-04T17:44:02;20.97;;;7.80;;
14470;SDS011;7321;50.802;4.336;2023-01-04T17:46:30;28.17;;;8.13;;
14470;SDS011;7321;50.802;4.336;2023-01-04T17:49:00;21.00;;;6.50;;
14470;SDS011;7321;50.802;4.336;2023-01-04T17:51:27;23.63;;;5.87;;
14470;SDS011;7321;50.802;4.336;2023-01-04T17:54:00;26.27;;;7.90;;
14470;SDS011;7321;50.802;4.336;2023-01-04T17:56:28;23.53;;;6.73;;
14470;SDS011;7321;50.802;4.336;2023-01-04T17:58:58;26.40;;;7.70;;